sensor_id;sensor_type;location;lat;lon;timestamp;temperature;humidity
4964;DHT22;2497;47.410;9.740;2024-03-02T00:01:37;5.80;99.90
4964;DHT22;2497;47.410;9.740;2024-03-02T00:04:04;5.90;99.90
4964;DHT22;2497;47.410;9.740;2024-03-02T00:06:32;5.90;99.90
4964;DHT22;2497;47.410;9.740;2024-03-02T00:08:59;5.90;99.90
4964;DHT22;2497;47.410;9.740;2024-03-02T00:11:27;5.90;99.90
4964;DHT22;2497;47.410;9.740;2024-03-02T00:13:54;5.90;99.90
4964;DHT22;2497;47.410;9.740;2024-03-02T00:16:23;5.90;99.90
4964;DHT22;2497;47.410;9.740;2024-03-02T00:18:50;5.90;99.90
4964;DHT22;2497;47.410;9.740;2024-03-02T00:21:18;5.90;99.90
4964;DHT22;2497;47.410;9.740;2024-03-02T00:23:48;6.00;99.90
4964;DHT22;2497;47.410;9.740;2024-03-02T00:26:17;6.00;99.90
4964;DHT22;2497;47.410;9.740;2024-03-02T00:28:44;5.90;99.90
4964;DHT22;2497;47.410;9.740;2024-03-02T00:31:12;5.90;99.90
4964;DHT22;2497;47.410;9.740;2024-03-02T00:33:43;5.90;99.90
4964;DHT22;2497;47.410;9.740;2024-03-02T00:36:11;5.90;99.90
4964;DHT22;2497;47.410;9.740;2024-03-02T00:38:44;5.90;99.90
4964;DHT22;2497;47.410;9.740;2024-03-02T00:41:17;5.90;99.90
4964;DHT22;2497;47.410;9.740;2024-03-02T00:43:48;6.00;99.90
4964;DHT22;2497;47.410;9.740;2024-03-02T00:46:18;5.90;99.90
4964;DHT22;2497;47.410;9.740;2024-03-02T00:48:52;6.00;99.90
4964;DHT22;2497;47.410;9.740;2024-03-02T00:51:23;6.00;99.90
4964;DHT22;2497;47.410;9.740;2024-03-02T00:53:55;6.00;99.90
4964;DHT22;2497;47.410;9.740;2024-03-02T00:56:22;5.90;99.90
4964;DHT22;2497;47.410;9.740;2024-03-02T00:58:50;5.90;99.90
4964;DHT22;2497;47.410;9.740;2024-03-02T01:01:17;5.90;99.90
4964;DHT22;2497;47.410;9.740;2024-03-02T01:03:45;5.90;99.90
4964;DHT22;2497;47.410;9.740;2024-03-02T01:06:14;5.90;99.90
4964;DHT22;2497;47.410;9.740;2024-03-02T01:08:41;5.80;99.90
4964;DHT22;2497;47.410;9.740;2024-03-02T01:11:08;5.80;99.90
4964;DHT22;2497;47.410;9.740;2024-03-02T01:13:36;5.80;99.90
4964;DHT22;2497;47.410;9.740;2024-03-02T01:16:03;5.80;99.90
4964;DHT22;2497;47.410;9.740;2024-03-02T01:18:30;5.80;99.90
4964;DHT22;2497;47.410;9.740;2024-03-02T01:21:00;5.80;99.90
4964;DHT22;2497;47.410;9.740;2024-03-02T01:23:29;5.70;99.90
4964;DHT22;2497;47.410;9.740;2024-03-02T01:25:58;5.70;99.90
4964;DHT22;2497;47.410;9.740;2024-03-02T01:28:25;5.70;99.90
4964;DHT22;2497;47.410;9.740;2024-03-02T01:30:52;5.80;99.90
4964;DHT22;2497;47.410;9.740;2024-03-02T01:33:22;5.80;99.90
4964;DHT22;2497;47.410;9.740;2024-03-02T01:35:49;5.90;99.90
4964;DHT22;2497;47.410;9.740;2024-03-02T01:38:16;6.00;99.90
4964;DHT22;2497;47.410;9.740;2024-03-02T01:40:45;6.10;99.90
4964;DHT22;2497;47.410;9.740;2024-03-02T01:43:12;6.00;99.90
4964;DHT22;2497;47.410;9.740;2024-03-02T01:45:41;5.90;99.90
4964;DHT22;2497;47.410;9.740;2024-03-02T01:48:08;5.90;99.90
4964;DHT22;2497;47.410;9.740;2024-03-02T01:50:36;5.80;99.90
4964;DHT22;2497;47.410;9.740;2024-03-02T01:53:03;5.90;99.90
4964;DHT22;2497;47.410;9.740;2024-03-02T01:55:31;5.80;99.90
4964;DHT22;2497;47.410;9.740;2024-03-02T01:58:01;5.80;99.90
4964;DHT22;2497;47.410;9.740;2024-03-02T02:00:29;5.80;99.90
4964;DHT22;2497;47.410;9.740;2024-03-02T02:02:56;5.80;99.90
4964;DHT22;2497;47.410;9.740;2024-03-02T02:05:23;5.90;99.90
4964;DHT22;2497;47.410;9.740;2024-03-02T02:07:50;5.90;99.90
4964;DHT22;2497;47.410;9.740;2024-03-02T02:10:17;6.00;99.90
4964;DHT22;2497;47.410;9.740;2024-03-02T02:12:44;6.00;99.90
4964;DHT22;2497;47.410;9.740;2024-03-02T02:15:26;6.00;99.90
4964;DHT22;2497;47.410;9.740;2024-03-02T02:17:53;6.00;99.90
4964;DHT22;2497;47.410;9.740;2024-03-02T02:20:20;6.00;99.90
4964;DHT22;2497;47.410;9.740;2024-03-02T02:23:01;6.00;99.90
4964;DHT22;2497;47.410;9.740;2024-03-02T02:25:28;6.00;99.90
4964;DHT22;2497;47.410;9.740;2024-03-02T02:28:05;6.00;99.90
4964;DHT22;2497;47.410;9.740;2024-03-02T02:30:33;6.00;99.90
4964;DHT22;2497;47.410;9.740;2024-03-02T02:33:00;6.00;99.90
4964;DHT22;2497;47.410;9.740;2024-03-02T02:35:29;6.00;99.90
4964;DHT22;2497;47.410;9.740;2024-03-02T02:37:58;6.10;99.90
4964;DHT22;2497;47.410;9.740;2024-03-02T02:40:25;6.00;99.90
4964;DHT22;2497;47.410;9.740;2024-03-02T02:42:52;6.10;99.90
4964;DHT22;2497;47.410;9.740;2024-03-02T02:45:19;6.20;99.90
4964;DHT22;2497;47.410;9.740;2024-03-02T02:47:46;6.20;99.90
4964;DHT22;2497;47.410;9.740;2024-03-02T02:50:13;6.10;99.90
4964;DHT22;2497;47.410;9.740;2024-03-02T02:52:41;6.00;99.90
4964;DHT22;2497;47.410;9.740;2024-03-02T02:55:11;6.00;99.90
4964;DHT22;2497;47.410;9.740;2024-03-02T02:57:39;6.00;99.90
4964;DHT22;2497;47.410;9.740;2024-03-02T03:00:09;5.90;99.90
4964;DHT22;2497;47.410;9.740;2024-03-02T03:02:40;6.10;99.90
4964;DHT22;2497;47.410;9.740;2024-03-02T03:05:08;6.00;99.90
4964;DHT22;2497;47.410;9.740;2024-03-02T03:07:36;5.90;99.90
4964;DHT22;2497;47.410;9.740;2024-03-02T03:10:04;5.90;99.90
4964;DHT22;2497;47.410;9.740;2024-03-02T03:12:33;5.90;99.90
4964;DHT22;2497;47.410;9.740;2024-03-02T03:15:01;5.90;99.90
4964;DHT22;2497;47.410;9.740;2024-03-02T03:17:28;5.90;99.90
4964;DHT22;2497;47.410;9.740;2024-03-02T03:19:55;5.90;99.90
4964;DHT22;2497;47.410;9.740;2024-03-02T03:22:22;5.80;99.90
4964;DHT22;2497;47.410;9.740;2024-03-02T03:24:49;5.80;99.90
4964;DHT22;2497;47.410;9.740;2024-03-02T03:27:17;5.90;99.90
4964;DHT22;2497;47.410;9.740;2024-03-02T03:29:48;6.10;99.90
4964;DHT22;2497;47.410;9.740;2024-03-02T03:32:15;6.10;99.90
4964;DHT22;2497;47.410;9.740;2024-03-02T03:34:42;6.00;99.90
4964;DHT22;2497;47.410;9.740;2024-03-02T03:37:09;6.00;99.90
4964;DHT22;2497;47.410;9.740;2024-03-02T03:39:37;5.90;99.90
4964;DHT22;2497;47.410;9.740;2024-03-02T03:42:04;5.90;99.90
4964;DHT22;2497;47.410;9.740;2024-03-02T03:44:32;5.80;99.90
4964;DHT22;2497;47.410;9.740;2024-03-02T03:47:00;5.80;99.90
4964;DHT22;2497;47.410;9.740;2024-03-02T03:49:28;5.70;99.90
4964;DHT22;2497;47.410;9.740;2024-03-02T03:51:55;5.70;99.90
4964;DHT22;2497;47.410;9.740;2024-03-02T03:54:22;5.70;99.90
4964;DHT22;2497;47.410;9.740;2024-03-02T03:56:49;5.70;99.90
4964;DHT22;2497;47.410;9.740;2024-03-02T03:59:16;5.70;99.90
4964;DHT22;2497;47.410;9.740;2024-03-02T04:01:43;5.70;99.90
4964;DHT22;2497;47.410;9.740;2024-03-02T04:04:12;5.70;99.90
4964;DHT22;2497;47.410;9.740;2024-03-02T04:06:39;5.70;99.90
4964;DHT22;2497;47.410;9.740;2024-03-02T04:09:06;5.60;99.90
4964;DHT22;2497;47.410;9.740;2024-03-02T04:11:36;5.60;99.90
4964;DHT22;2497;47.410;9.740;2024-03-02T04:14:03;5.50;99.90
4964;DHT22;2497;47.410;9.740;2024-03-02T04:16:32;5.50;99.90
4964;DHT22;2497;47.410;9.740;2024-03-02T04:18:59;5.50;99.90
4964;DHT22;2497;47.410;9.740;2024-03-02T04:21:30;5.50;99.90
4964;DHT22;2497;47.410;9.740;2024-03-02T04:23:57;5.40;99.90
4964;DHT22;2497;47.410;9.740;2024-03-02T04:26:25;5.40;99.90
4964;DHT22;2497;47.410;9.740;2024-03-02T04:28:52;5.40;99.90
4964;DHT22;2497;47.410;9.740;2024-03-02T04:31:20;5.50;99.90
4964;DHT22;2497;47.410;9.740;2024-03-02T04:33:47;5.50;99.90
4964;DHT22;2497;47.410;9.740;2024-03-02T04:36:14;5.60;99.90
4964;DHT22;2497;47.410;9.740;2024-03-02T04:38:43;5.60;99.90
4964;DHT22;2497;47.410;9.740;2024-03-02T04:41:10;5.60;99.90
4964;DHT22;2497;47.410;9.740;2024-03-02T04:43:37;5.50;99.90
4964;DHT22;2497;47.410;9.740;2024-03-02T04:46:05;5.50;99.90
4964;DHT22;2497;47.410;9.740;2024-03-02T04:48:32;5.50;99.90
4964;DHT22;2497;47.410;9.740;2024-03-02T04:50:59;5.50;99.90
4964;DHT22;2497;47.410;9.740;2024-03-02T04:53:27;5.60;99.90
4964;DHT22;2497;47.410;9.740;2024-03-02T04:55:55;5.60;99.90
4964;DHT22;2497;47.410;9.740;2024-03-02T04:58:53;5.60;99.90
4964;DHT22;2497;47.410;9.740;2024-03-02T05:01:20;5.60;99.90
4964;DHT22;2497;47.410;9.740;2024-03-02T05:03:47;5.60;99.90
4964;DHT22;2497;47.410;9.740;2024-03-02T05:06:14;5.50;99.90
4964;DHT22;2497;47.410;9.740;2024-03-02T05:08:41;5.50;99.90
4964;DHT22;2497;47.410;9.740;2024-03-02T05:11:11;5.50;99.90
4964;DHT22;2497;47.410;9.740;2024-03-02T05:13:57;5.50;99.90
4964;DHT22;2497;47.410;9.740;2024-03-02T05:16:23;5.50;99.90
4964;DHT22;2497;47.410;9.740;2024-03-02T05:18:50;5.50;99.90
4964;DHT22;2497;47.410;9.740;2024-03-02T05:21:18;5.40;99.90
4964;DHT22;2497;47.410;9.740;2024-03-02T05:23:45;5.40;99.90
4964;DHT22;2497;47.410;9.740;2024-03-02T05:26:13;5.40;99.90
4964;DHT22;2497;47.410;9.740;2024-03-02T05:28:40;5.40;99.90
4964;DHT22;2497;47.410;9.740;2024-03-02T05:31:10;5.40;99.90
4964;DHT22;2497;47.410;9.740;2024-03-02T05:33:37;5.40;99.90
4964;DHT22;2497;47.410;9.740;2024-03-02T05:36:05;5.40;99.90
4964;DHT22;2497;47.410;9.740;2024-03-02T05:38:32;5.30;99.90
4964;DHT22;2497;47.410;9.740;2024-03-02T05:40:59;5.30;99.90
4964;DHT22;2497;47.410;9.740;2024-03-02T05:43:27;5.30;99.90
4964;DHT22;2497;47.410;9.740;2024-03-02T05:45:54;5.30;99.90
4964;DHT22;2497;47.410;9.740;2024-03-02T05:48:21;5.30;99.90
4964;DHT22;2497;47.410;9.740;2024-03-02T05:50:48;5.30;99.90
4964;DHT22;2497;47.410;9.740;2024-03-02T05:53:15;5.30;99.90
4964;DHT22;2497;47.410;9.740;2024-03-02T05:55:42;5.20;99.90
4964;DHT22;2497;47.410;9.740;2024-03-02T05:58:11;5.30;99.90
4964;DHT22;2497;47.410;9.740;2024-03-02T06:00:52;5.30;99.90
4964;DHT22;2497;47.410;9.740;2024-03-02T06:03:20;5.40;99.90
4964;DHT22;2497;47.410;9.740;2024-03-02T06:05:47;5.30;99.90
4964;DHT22;2497;47.410;9.740;2024-03-02T06:08:14;5.30;99.90
4964;DHT22;2497;47.410;9.740;2024-03-02T06:10:41;5.30;99.90
4964;DHT22;2497;47.410;9.740;2024-03-02T06:13:08;5.30;99.90
4964;DHT22;2497;47.410;9.740;2024-03-02T06:15:35;5.20;99.90
4964;DHT22;2497;47.410;9.740;2024-03-02T06:18:05;5.20;99.90
4964;DHT22;2497;47.410;9.740;2024-03-02T06:20:33;5.20;99.90
4964;DHT22;2497;47.410;9.740;2024-03-02T06:23:00;5.20;99.90
4964;DHT22;2497;47.410;9.740;2024-03-02T06:25:27;5.20;99.90
4964;DHT22;2497;47.410;9.740;2024-03-02T06:27:54;5.20;99.90
4964;DHT22;2497;47.410;9.740;2024-03-02T06:30:21;5.20;99.90
4964;DHT22;2497;47.410;9.740;2024-03-02T06:32:49;5.20;99.90
4964;DHT22;2497;47.410;9.740;2024-03-02T06:35:17;5.20;99.90
4964;DHT22;2497;47.410;9.740;2024-03-02T06:37:44;5.20;99.90
4964;DHT22;2497;47.410;9.740;2024-03-02T06:40:11;5.30;99.90
4964;DHT22;2497;47.410;9.740;2024-03-02T06:42:38;5.30;99.90
4964;DHT22;2497;47.410;9.740;2024-03-02T06:45:06;5.30;99.90
4964;DHT22;2497;47.410;9.740;2024-03-02T06:47:33;5.30;99.90
4964;DHT22;2497;47.410;9.740;2024-03-02T06:50:00;5.40;99.90
4964;DHT22;2497;47.410;9.740;2024-03-02T06:52:29;5.40;99.90
4964;DHT22;2497;47.410;9.740;2024-03-02T06:54:56;5.50;99.90
4964;DHT22;2497;47.410;9.740;2024-03-02T06:57:23;5.50;99.90
4964;DHT22;2497;47.410;9.740;2024-03-02T06:59:50;5.50;99.90
4964;DHT22;2497;47.410;9.740;2024-03-02T07:02:20;5.60;99.90
4964;DHT22;2497;47.410;9.740;2024-03-02T07:04:48;5.60;99.90
4964;DHT22;2497;47.410;9.740;2024-03-02T07:07:17;5.60;99.90
4964;DHT22;2497;47.410;9.740;2024-03-02T07:09:45;5.70;99.90
4964;DHT22;2497;47.410;9.740;2024-03-02T07:12:12;5.70;99.90
4964;DHT22;2497;47.410;9.740;2024-03-02T07:14:39;5.90;99.90
4964;DHT22;2497;47.410;9.740;2024-03-02T07:17:23;5.80;99.90
4964;DHT22;2497;47.410;9.740;2024-03-02T07:19:50;5.80;99.90
4964;DHT22;2497;47.410;9.740;2024-03-02T07:22:17;5.90;99.90
4964;DHT22;2497;47.410;9.740;2024-03-02T07:24:46;5.90;99.90
4964;DHT22;2497;47.410;9.740;2024-03-02T07:27:13;5.90;99.90
4964;DHT22;2497;47.410;9.740;2024-03-02T07:29:40;6.00;99.90
4964;DHT22;2497;47.410;9.740;2024-03-02T07:32:08;6.10;99.90
4964;DHT22;2497;47.410;9.740;2024-03-02T07:34:38;6.20;99.90
4964;DHT22;2497;47.410;9.740;2024-03-02T07:37:06;6.30;99.90
4964;DHT22;2497;47.410;9.740;2024-03-02T07:39:33;6.40;99.90
4964;DHT22;2497;47.410;9.740;2024-03-02T07:42:01;6.40;99.90
4964;DHT22;2497;47.410;9.740;2024-03-02T07:44:29;6.40;99.90
4964;DHT22;2497;47.410;9.740;2024-03-02T07:46:56;6.50;99.90
4964;DHT22;2497;47.410;9.740;2024-03-02T07:49:23;6.50;99.90
4964;DHT22;2497;47.410;9.740;2024-03-02T07:51:50;6.60;99.90
4964;DHT22;2497;47.410;9.740;2024-03-02T07:54:17;6.70;99.90
4964;DHT22;2497;47.410;9.740;2024-03-02T07:56:45;6.80;99.90
4964;DHT22;2497;47.410;9.740;2024-03-02T07:59:14;6.80;99.90
4964;DHT22;2497;47.410;9.740;2024-03-02T08:01:41;6.90;99.90
4964;DHT22;2497;47.410;9.740;2024-03-02T08:04:08;6.90;99.90
4964;DHT22;2497;47.410;9.740;2024-03-02T08:06:35;7.00;99.90
4964;DHT22;2497;47.410;9.740;2024-03-02T08:09:05;7.10;99.90
4964;DHT22;2497;47.410;9.740;2024-03-02T08:11:35;7.10;99.90
4964;DHT22;2497;47.410;9.740;2024-03-02T08:14:05;7.10;99.90
4964;DHT22;2497;47.410;9.740;2024-03-02T08:16:34;7.20;99.90
4964;DHT22;2497;47.410;9.740;2024-03-02T08:19:01;7.40;99.90
4964;DHT22;2497;47.410;9.740;2024-03-02T08:21:29;7.40;99.90
4964;DHT22;2497;47.410;9.740;2024-03-02T08:23:57;7.50;99.90
4964;DHT22;2497;47.410;9.740;2024-03-02T08:26:25;7.60;99.90
4964;DHT22;2497;47.410;9.740;2024-03-02T08:28:55;7.50;99.90
4964;DHT22;2497;47.410;9.740;2024-03-02T08:31:22;7.60;99.90
4964;DHT22;2497;47.410;9.740;2024-03-02T08:33:54;7.50;99.90
4964;DHT22;2497;47.410;9.740;2024-03-02T08:36:23;7.60;99.90
4964;DHT22;2497;47.410;9.740;2024-03-02T08:38:50;7.70;99.90
4964;DHT22;2497;47.410;9.740;2024-03-02T08:41:17;7.80;99.90
4964;DHT22;2497;47.410;9.740;2024-03-02T08:43:47;7.80;99.90
4964;DHT22;2497;47.410;9.740;2024-03-02T08:46:14;7.70;99.90
4964;DHT22;2497;47.410;9.740;2024-03-02T08:48:41;7.70;99.90
4964;DHT22;2497;47.410;9.740;2024-03-02T08:51:10;7.50;99.90
4964;DHT22;2497;47.410;9.740;2024-03-02T08:53:37;7.50;99.90
4964;DHT22;2497;47.410;9.740;2024-03-02T08:56:05;7.80;99.90
4964;DHT22;2497;47.410;9.740;2024-03-02T08:58:32;7.90;99.90
4964;DHT22;2497;47.410;9.740;2024-03-02T09:00:59;7.90;99.90
4964;DHT22;2497;47.410;9.740;2024-03-02T09:03:26;7.80;99.90
4964;DHT22;2497;47.410;9.740;2024-03-02T09:05:54;7.80;99.90
4964;DHT22;2497;47.410;9.740;2024-03-02T09:08:22;8.00;99.90
4964;DHT22;2497;47.410;9.740;2024-03-02T09:10:49;8.10;99.90
4964;DHT22;2497;47.410;9.740;2024-03-02T09:13:16;8.20;99.90
4964;DHT22;2497;47.410;9.740;2024-03-02T09:15:44;8.20;99.90
4964;DHT22;2497;47.410;9.740;2024-03-02T09:18:11;8.20;99.90
4964;DHT22;2497;47.410;9.740;2024-03-02T09:20:38;8.40;99.90
4964;DHT22;2497;47.410;9.740;2024-03-02T09:23:05;8.40;99.90
4964;DHT22;2497;47.410;9.740;2024-03-02T09:25:34;8.50;99.90
4964;DHT22;2497;47.410;9.740;2024-03-02T09:28:03;8.60;99.90
4964;DHT22;2497;47.410;9.740;2024-03-02T09:30:30;8.70;99.90
4964;DHT22;2497;47.410;9.740;2024-03-02T09:32:57;8.90;99.90
4964;DHT22;2497;47.410;9.740;2024-03-02T09:35:25;9.20;99.90
4964;DHT22;2497;47.410;9.740;2024-03-02T09:37:52;9.60;99.90
4964;DHT22;2497;47.410;9.740;2024-03-02T09:40:21;9.60;99.90
4964;DHT22;2497;47.410;9.740;2024-03-02T09:42:51;9.20;99.90
4964;DHT22;2497;47.410;9.740;2024-03-02T09:45:23;9.30;99.90
4964;DHT22;2497;47.410;9.740;2024-03-02T09:47:51;9.50;99.90
4964;DHT22;2497;47.410;9.740;2024-03-02T09:50:18;9.40;99.90
4964;DHT22;2497;47.410;9.740;2024-03-02T09:52:48;9.60;99.90
4964;DHT22;2497;47.410;9.740;2024-03-02T09:55:16;9.90;99.90
4964;DHT22;2497;47.410;9.740;2024-03-02T09:57:43;10.30;99.90
4964;DHT22;2497;47.410;9.740;2024-03-02T10:00:14;10.20;99.90
4964;DHT22;2497;47.410;9.740;2024-03-02T10:02:41;10.40;99.90
4964;DHT22;2497;47.410;9.740;2024-03-02T10:05:09;10.60;99.90
4964;DHT22;2497;47.410;9.740;2024-03-02T10:07:36;10.80;99.90
4964;DHT22;2497;47.410;9.740;2024-03-02T10:10:13;10.60;99.90
4964;DHT22;2497;47.410;9.740;2024-03-02T10:12:40;10.70;99.90
4964;DHT22;2497;47.410;9.740;2024-03-02T10:15:08;10.90;99.90
4964;DHT22;2497;47.410;9.740;2024-03-02T10:17:37;10.90;99.90
4964;DHT22;2497;47.410;9.740;2024-03-02T10:20:23;10.60;99.90
4964;DHT22;2497;47.410;9.740;2024-03-02T10:22:51;10.50;99.90
4964;DHT22;2497;47.410;9.740;2024-03-02T10:25:29;11.00;99.90
4964;DHT22;2497;47.410;9.740;2024-03-02T10:27:58;11.20;99.90
4964;DHT22;2497;47.410;9.740;2024-03-02T10:30:25;10.80;99.90
4964;DHT22;2497;47.410;9.740;2024-03-02T10:32:55;11.10;99.90
4964;DHT22;2497;47.410;9.740;2024-03-02T10:35:25;10.90;99.90
4964;DHT22;2497;47.410;9.740;2024-03-02T10:37:53;11.30;99.90
4964;DHT22;2497;47.410;9.740;2024-03-02T10:40:21;11.30;99.90
4964;DHT22;2497;47.410;9.740;2024-03-02T10:42:50;11.50;99.90
4964;DHT22;2497;47.410;9.740;2024-03-02T10:45:20;11.40;99.90
4964;DHT22;2497;47.410;9.740;2024-03-02T10:47:48;11.40;99.90
4964;DHT22;2497;47.410;9.740;2024-03-02T10:50:17;11.30;99.90
4964;DHT22;2497;47.410;9.740;2024-03-02T10:52:45;11.20;99.90
4964;DHT22;2497;47.410;9.740;2024-03-02T10:55:12;11.20;99.90
4964;DHT22;2497;47.410;9.740;2024-03-02T10:57:50;11.30;99.90
4964;DHT22;2497;47.410;9.740;2024-03-02T11:00:18;11.20;99.90
4964;DHT22;2497;47.410;9.740;2024-03-02T11:02:52;11.10;99.90
4964;DHT22;2497;47.410;9.740;2024-03-02T11:05:27;10.80;99.90
4964;DHT22;2497;47.410;9.740;2024-03-02T11:07:59;11.10;99.90
4964;DHT22;2497;47.410;9.740;2024-03-02T11:10:32;11.00;99.90
4964;DHT22;2497;47.410;9.740;2024-03-02T11:13:02;11.00;99.90
4964;DHT22;2497;47.410;9.740;2024-03-02T11:15:35;11.00;99.90
4964;DHT22;2497;47.410;9.740;2024-03-02T11:18:04;11.10;99.90
4964;DHT22;2497;47.410;9.740;2024-03-02T11:20:36;11.10;99.90
4964;DHT22;2497;47.410;9.740;2024-03-02T11:23:06;11.50;99.90
4964;DHT22;2497;47.410;9.740;2024-03-02T11:25:33;11.60;99.90
4964;DHT22;2497;47.410;9.740;2024-03-02T11:28:05;12.30;99.90
4964;DHT22;2497;47.410;9.740;2024-03-02T11:30:52;12.40;99.90
4964;DHT22;2497;47.410;9.740;2024-03-02T11:33:26;12.50;99.90
4964;DHT22;2497;47.410;9.740;2024-03-02T11:35:56;12.50;99.90
4964;DHT22;2497;47.410;9.740;2024-03-02T11:38:28;13.30;99.90
4964;DHT22;2497;47.410;9.740;2024-03-02T11:40:56;14.00;99.90
4964;DHT22;2497;47.410;9.740;2024-03-02T11:43:23;14.10;99.90
4964;DHT22;2497;47.410;9.740;2024-03-02T11:45:56;13.70;99.90
4964;DHT22;2497;47.410;9.740;2024-03-02T11:48:27;14.20;99.90
4964;DHT22;2497;47.410;9.740;2024-03-02T11:50:58;14.50;99.90
4964;DHT22;2497;47.410;9.740;2024-03-02T11:53:27;15.50;99.90
4964;DHT22;2497;47.410;9.740;2024-03-02T11:55:55;15.90;99.90
4964;DHT22;2497;47.410;9.740;2024-03-02T11:58:22;16.30;99.90
4964;DHT22;2497;47.410;9.740;2024-03-02T12:00:52;16.20;99.90
4964;DHT22;2497;47.410;9.740;2024-03-02T12:03:22;16.10;99.90
4964;DHT22;2497;47.410;9.740;2024-03-02T12:05:51;15.90;99.90
4964;DHT22;2497;47.410;9.740;2024-03-02T12:08:20;15.80;99.90
4964;DHT22;2497;47.410;9.740;2024-03-02T12:10:58;15.80;99.90
4964;DHT22;2497;47.410;9.740;2024-03-02T12:13:26;16.20;99.90
4964;DHT22;2497;47.410;9.740;2024-03-02T12:15:54;16.70;99.90
4964;DHT22;2497;47.410;9.740;2024-03-02T12:18:22;17.00;99.90
4964;DHT22;2497;47.410;9.740;2024-03-02T12:20:50;17.60;99.90
4964;DHT22;2497;47.410;9.740;2024-03-02T12:23:20;17.70;99.90
4964;DHT22;2497;47.410;9.740;2024-03-02T12:25:48;17.10;99.90
4964;DHT22;2497;47.410;9.740;2024-03-02T12:28:15;16.80;99.90
4964;DHT22;2497;47.410;9.740;2024-03-02T12:30:43;16.60;99.90
4964;DHT22;2497;47.410;9.740;2024-03-02T12:33:11;16.70;99.90
4964;DHT22;2497;47.410;9.740;2024-03-02T12:35:39;16.60;99.90
4964;DHT22;2497;47.410;9.740;2024-03-02T12:38:07;17.40;99.90
4964;DHT22;2497;47.410;9.740;2024-03-02T12:40:35;18.50;99.90
4964;DHT22;2497;47.410;9.740;2024-03-02T12:43:03;19.50;99.90
4964;DHT22;2497;47.410;9.740;2024-03-02T12:45:30;20.30;99.90
4964;DHT22;2497;47.410;9.740;2024-03-02T12:47:59;20.30;99.90
4964;DHT22;2497;47.410;9.740;2024-03-02T12:50:26;19.30;99.90
4964;DHT22;2497;47.410;9.740;2024-03-02T12:52:53;20.00;99.90
4964;DHT22;2497;47.410;9.740;2024-03-02T12:55:21;21.10;99.90
4964;DHT22;2497;47.410;9.740;2024-03-02T12:57:51;22.90;99.90
4964;DHT22;2497;47.410;9.740;2024-03-02T13:00:21;23.70;99.90
4964;DHT22;2497;47.410;9.740;2024-03-02T13:02:50;24.70;99.90
4964;DHT22;2497;47.410;9.740;2024-03-02T13:05:17;24.70;99.90
4964;DHT22;2497;47.410;9.740;2024-03-02T13:07:47;25.50;99.90
4964;DHT22;2497;47.410;9.740;2024-03-02T13:10:14;24.90;99.90
4964;DHT22;2497;47.410;9.740;2024-03-02T13:12:41;23.60;99.90
4964;DHT22;2497;47.410;9.740;2024-03-02T13:15:10;23.90;99.90
4964;DHT22;2497;47.410;9.740;2024-03-02T13:17:39;24.00;99.90
4964;DHT22;2497;47.410;9.740;2024-03-02T13:20:06;23.40;99.90
4964;DHT22;2497;47.410;9.740;2024-03-02T13:22:36;23.50;99.90
4964;DHT22;2497;47.410;9.740;2024-03-02T13:25:04;22.50;99.90
4964;DHT22;2497;47.410;9.740;2024-03-02T13:27:31;22.60;99.90
4964;DHT22;2497;47.410;9.740;2024-03-02T13:29:58;22.60;99.90
4964;DHT22;2497;47.410;9.740;2024-03-02T13:32:26;20.70;99.90
4964;DHT22;2497;47.410;9.740;2024-03-02T13:34:54;21.00;99.90
4964;DHT22;2497;47.410;9.740;2024-03-02T13:37:21;20.90;99.90
4964;DHT22;2497;47.410;9.740;2024-03-02T13:39:48;20.90;99.90
4964;DHT22;2497;47.410;9.740;2024-03-02T13:42:16;21.30;99.90
4964;DHT22;2497;47.410;9.740;2024-03-02T13:44:43;21.30;99.90
4964;DHT22;2497;47.410;9.740;2024-03-02T13:47:11;21.20;99.90
4964;DHT22;2497;47.410;9.740;2024-03-02T13:49:39;21.60;99.90
4964;DHT22;2497;47.410;9.740;2024-03-02T13:52:09;22.30;99.90
4964;DHT22;2497;47.410;9.740;2024-03-02T13:54:39;22.30;99.90
4964;DHT22;2497;47.410;9.740;2024-03-02T13:57:06;22.00;99.90
4964;DHT22;2497;47.410;9.740;2024-03-02T13:59:34;21.20;99.90
4964;DHT22;2497;47.410;9.740;2024-03-02T14:02:01;20.40;99.90
4964;DHT22;2497;47.410;9.740;2024-03-02T14:04:30;19.70;99.90
4964;DHT22;2497;47.410;9.740;2024-03-02T14:06:59;19.90;99.90
4964;DHT22;2497;47.410;9.740;2024-03-02T14:09:26;19.50;99.90
4964;DHT22;2497;47.410;9.740;2024-03-02T14:11:54;18.80;99.90
4964;DHT22;2497;47.410;9.740;2024-03-02T14:14:21;18.80;99.90
4964;DHT22;2497;47.410;9.740;2024-03-02T14:16:51;18.70;99.90
4964;DHT22;2497;47.410;9.740;2024-03-02T14:19:19;18.70;99.90
4964;DHT22;2497;47.410;9.740;2024-03-02T14:21:47;19.20;99.90
4964;DHT22;2497;47.410;9.740;2024-03-02T14:24:15;19.70;99.90
4964;DHT22;2497;47.410;9.740;2024-03-02T14:26:42;19.60;99.90
4964;DHT22;2497;47.410;9.740;2024-03-02T14:29:10;20.30;99.90
4964;DHT22;2497;47.410;9.740;2024-03-02T14:31:37;20.30;99.90
4964;DHT22;2497;47.410;9.740;2024-03-02T14:34:04;20.30;99.90
4964;DHT22;2497;47.410;9.740;2024-03-02T14:36:31;20.30;99.90
4964;DHT22;2497;47.410;9.740;2024-03-02T14:38:58;20.30;99.90
4964;DHT22;2497;47.410;9.740;2024-03-02T14:41:26;20.40;99.90
4964;DHT22;2497;47.410;9.740;2024-03-02T14:43:54;20.00;99.90
4964;DHT22;2497;47.410;9.740;2024-03-02T14:46:21;20.50;99.90
4964;DHT22;2497;47.410;9.740;2024-03-02T14:48:48;21.30;99.90
4964;DHT22;2497;47.410;9.740;2024-03-02T14:51:15;22.60;99.90
4964;DHT22;2497;47.410;9.740;2024-03-02T14:53:42;23.30;99.90
4964;DHT22;2497;47.410;9.740;2024-03-02T14:56:09;22.90;99.90
4964;DHT22;2497;47.410;9.740;2024-03-02T14:58:40;22.70;99.90
4964;DHT22;2497;47.410;9.740;2024-03-02T15:01:07;21.70;99.90
4964;DHT22;2497;47.410;9.740;2024-03-02T15:03:35;21.50;99.90
4964;DHT22;2497;47.410;9.740;2024-03-02T15:06:02;20.80;99.90
4964;DHT22;2497;47.410;9.740;2024-03-02T15:08:30;20.60;99.90
4964;DHT22;2497;47.410;9.740;2024-03-02T15:10:58;20.60;99.90
4964;DHT22;2497;47.410;9.740;2024-03-02T15:13:26;20.40;99.90
4964;DHT22;2497;47.410;9.740;2024-03-02T15:15:55;19.50;99.90
4964;DHT22;2497;47.410;9.740;2024-03-02T15:18:22;18.90;99.90
4964;DHT22;2497;47.410;9.740;2024-03-02T15:20:49;18.30;99.90
4964;DHT22;2497;47.410;9.740;2024-03-02T15:23:17;17.60;99.90
4964;DHT22;2497;47.410;9.740;2024-03-02T15:25:44;17.20;99.90
4964;DHT22;2497;47.410;9.740;2024-03-02T15:28:11;17.50;99.90
4964;DHT22;2497;47.410;9.740;2024-03-02T15:30:38;17.40;99.90
4964;DHT22;2497;47.410;9.740;2024-03-02T15:33:08;17.00;99.90
4964;DHT22;2497;47.410;9.740;2024-03-02T15:35:35;16.70;99.90
4964;DHT22;2497;47.410;9.740;2024-03-02T15:38:02;16.40;99.90
4964;DHT22;2497;47.410;9.740;2024-03-02T15:40:29;16.00;99.90
4964;DHT22;2497;47.410;9.740;2024-03-02T15:42:57;15.60;99.90
4964;DHT22;2497;47.410;9.740;2024-03-02T15:45:24;15.30;99.90
4964;DHT22;2497;47.410;9.740;2024-03-02T15:48:02;15.10;99.90
4964;DHT22;2497;47.410;9.740;2024-03-02T15:50:30;14.90;99.90
4964;DHT22;2497;47.410;9.740;2024-03-02T15:52:58;15.00;99.90
4964;DHT22;2497;47.410;9.740;2024-03-02T15:55:28;14.90;99.90
4964;DHT22;2497;47.410;9.740;2024-03-02T15:57:55;14.50;99.90
4964;DHT22;2497;47.410;9.740;2024-03-02T16:00:24;14.30;99.90
4964;DHT22;2497;47.410;9.740;2024-03-02T16:02:51;14.40;99.90
4964;DHT22;2497;47.410;9.740;2024-03-02T16:05:18;14.60;99.90
4964;DHT22;2497;47.410;9.740;2024-03-02T16:07:47;14.50;99.90
4964;DHT22;2497;47.410;9.740;2024-03-02T16:10:15;14.20;99.90
4964;DHT22;2497;47.410;9.740;2024-03-02T16:12:42;14.10;99.90
4964;DHT22;2497;47.410;9.740;2024-03-02T16:15:09;14.00;99.90
4964;DHT22;2497;47.410;9.740;2024-03-02T16:17:36;13.80;99.90
4964;DHT22;2497;47.410;9.740;2024-03-02T16:20:04;13.70;99.90